sensor_id;sensor_type;location;lat;lon;timestamp;P1;durP1;ratioP1;P2;durP2;ratioP2
75535;SDS011;64119;52.070;20.804;2022-12-11T00:01:07;21.60;;;7.70;;
75535;SDS011;64119;52.070;20.804;2022-12-11T00:03:40;35.90;;;14.50;;
75535;SDS011;64119;52.070;20.804;2022-12-11T00:06:09;18.10;;;5.90;;
75535;SDS011;64119;52.070;20.804;2022-12-11T00:08:39;17.50;;;7.60;;
75535;SDS011;64119;52.070;20.804;2022-12-11T00:11:07;23.10;;;9.30;;
75535;SDS011;64119;52.070;20.804;2022-12-11T00:13:36;34.60;;;12.90;;
75535;SDS011;64119;52.070;20.804;2022-12-11T00:16:04;36.80;;;13.90;;
75535;SDS011;64119;52.070;20.804;2022-12-11T00:18:32;28.20;;;10.90;;
75535;SDS011;64119;52.070;20.804;2022-12-11T00:21:00;29.70;;;10.30;;
75535;SDS011;64119;52.070;20.804;2022-12-11T00:23:29;34.50;;;11.50;;
75535;SDS011;64119;52.070;20.804;2022-12-11T00:25:57;31.30;;;12.40;;
75535;SDS011;64119;52.070;20.804;2022-12-11T00:28:24;25.20;;;9.00;;
75535;SDS011;64119;52.070;20.804;2022-12-11T00:30:52;16.70;;;5.60;;
75535;SDS011;64119;52.070;20.804;2022-12-11T00:33:20;14.60;;;5.80;;
75535;SDS011;64119;52.070;20.804;2022-12-11T00:35:47;17.70;;;7.40;;
75535;SDS011;64119;52.070;20.804;2022-12-11T00:38:16;25.40;;;9.50;;
75535;SDS011;64119;52.070;20.804;2022-12-11T00:40:45;24.40;;;8.60;;
75535;SDS011;64119;52.070;20.804;2022-12-11T00:43:14;31.10;;;10.10;;
75535;SDS011;64119;52.070;20.804;2022-12-11T00:45:43;26.00;;;8.50;;
75535;SDS011;64119;52.070;20.804;2022-12-11T00:48:13;19.90;;;6.90;;
75535;SDS011;64119;52.070;20.804;2022-12-11T00:50:41;22.40;;;7.60;;
75535;SDS011;64119;52.070;20.804;2022-12-11T00:53:09;18.20;;;6.70;;
75535;SDS011;64119;52.070;20.804;2022-12-11T00:55:37;25.30;;;9.50;;
75535;SDS011;64119;52.070;20.804;2022-12-11T00:58:07;17.60;;;6.70;;
75535;SDS011;64119;52.070;20.804;2022-12-11T01:00:36;16.50;;;6.70;;
75535;SDS011;64119;52.070;20.804;2022-12-11T01:03:04;29.80;;;11.60;;
75535;SDS011;64119;52.070;20.804;2022-12-11T01:05:33;15.40;;;6.00;;
75535;SDS011;64119;52.070;20.804;2022-12-11T01:08:01;17.70;;;5.90;;
75535;SDS011;64119;52.070;20.804;2022-12-11T01:10:29;29.30;;;9.80;;
75535;SDS011;64119;52.070;20.804;2022-12-11T01:12:59;14.40;;;4.80;;
75535;SDS011;64119;52.070;20.804;2022-12-11T01:15:29;29.30;;;11.70;;
75535;SDS011;64119;52.070;20.804;2022-12-11T01:18:16;11.10;;;3.90;;
75535;SDS011;64119;52.070;20.804;2022-12-11T01:20:43;9.90;;;4.40;;
75535;SDS011;64119;52.070;20.804;2022-12-11T01:23:11;23.20;;;8.30;;
75535;SDS011;64119;52.070;20.804;2022-12-11T01:25:40;20.40;;;6.80;;
75535;SDS011;64119;52.070;20.804;2022-12-11T01:28:08;34.80;;;12.70;;
75535;SDS011;64119;52.070;20.804;2022-12-11T01:30:36;19.30;;;5.60;;
75535;SDS011;64119;52.070;20.804;2022-12-11T01:33:06;28.00;;;10.50;;
75535;SDS011;64119;52.070;20.804;2022-12-11T01:35:34;13.40;;;4.50;;
75535;SDS011;64119;52.070;20.804;2022-12-11T01:38:02;18.00;;;6.30;;
75535;SDS011;64119;52.070;20.804;2022-12-11T01:40:30;13.90;;;4.60;;
75535;SDS011;64119;52.070;20.804;2022-12-11T01:42:58;15.60;;;6.20;;
75535;SDS011;64119;52.070;20.804;2022-12-11T01:45:27;13.60;;;5.60;;
75535;SDS011;64119;52.070;20.804;2022-12-11T01:47:58;18.90;;;8.20;;
75535;SDS011;64119;52.070;20.804;2022-12-11T01:50:30;8.60;;;3.70;;
75535;SDS011;64119;52.070;20.804;2022-12-11T01:53:00;23.20;;;8.80;;
75535;SDS011;64119;52.070;20.804;2022-12-11T01:55:32;25.90;;;8.90;;
75535;SDS011;64119;52.070;20.804;2022-12-11T01:58:01;18.70;;;7.00;;
75535;SDS011;64119;52.070;20.804;2022-12-11T02:00:29;19.60;;;7.50;;
75535;SDS011;64119;52.070;20.804;2022-12-11T02:02:57;18.30;;;5.90;;
75535;SDS011;64119;52.070;20.804;2022-12-11T02:05:24;10.50;;;3.70;;
75535;SDS011;64119;52.070;20.804;2022-12-11T02:07:56;23.10;;;7.90;;
75535;SDS011;64119;52.070;20.804;2022-12-11T02:11:04;20.60;;;8.10;;
75535;SDS011;64119;52.070;20.804;2022-12-11T02:16:01;19.20;;;7.80;;
75535;SDS011;64119;52.070;20.804;2022-12-11T02:18:41;8.10;;;3.90;;
75535;SDS011;64119;52.070;20.804;2022-12-11T02:21:40;6.90;;;2.80;;
75535;SDS011;64119;52.070;20.804;2022-12-11T02:27:27;18.00;;;4.80;;
75535;SDS011;64119;52.070;20.804;2022-12-11T02:32:31;22.40;;;8.40;;
75535;SDS011;64119;52.070;20.804;2022-12-11T02:37:51;14.40;;;6.20;;
75535;SDS011;64119;52.070;20.804;2022-12-11T02:40:27;7.20;;;3.70;;
75535;SDS011;64119;52.070;20.804;2022-12-11T02:42:57;7.60;;;3.10;;
75535;SDS011;64119;52.070;20.804;2022-12-11T02:45:29;7.30;;;3.30;;
75535;SDS011;64119;52.070;20.804;2022-12-11T02:48:00;11.10;;;3.90;;
75535;SDS011;64119;52.070;20.804;2022-12-11T02:50:32;14.30;;;5.60;;
75535;SDS011;64119;52.070;20.804;2022-12-11T02:53:02;12.60;;;4.70;;
75535;SDS011;64119;52.070;20.804;2022-12-11T02:55:33;28.90;;;9.50;;
75535;SDS011;64119;52.070;20.804;2022-12-11T02:58:15;27.50;;;9.70;;
75535;SDS011;64119;52.070;20.804;2022-12-11T03:00:46;21.70;;;8.50;;
75535;SDS011;64119;52.070;20.804;2022-12-11T03:03:14;13.90;;;5.80;;
75535;SDS011;64119;52.070;20.804;2022-12-11T03:05:42;16.20;;;6.00;;
75535;SDS011;64119;52.070;20.804;2022-12-11T03:10:44;11.50;;;4.30;;
75535;SDS011;64119;52.070;20.804;2022-12-11T03:13:13;7.00;;;3.60;;
75535;SDS011;64119;52.070;20.804;2022-12-11T03:15:50;12.20;;;4.90;;
75535;SDS011;64119;52.070;20.804;2022-12-11T03:18:33;10.00;;;4.50;;
75535;SDS011;64119;52.070;20.804;2022-12-11T03:21:14;15.20;;;6.10;;
75535;SDS011;64119;52.070;20.804;2022-12-11T03:24:07;17.40;;;6.70;;
75535;SDS011;64119;52.070;20.804;2022-12-11T03:26:40;8.30;;;2.80;;
75535;SDS011;64119;52.070;20.804;2022-12-11T03:29:16;10.90;;;4.60;;
75535;SDS011;64119;52.070;20.804;2022-12-11T03:31:58;16.50;;;6.20;;
75535;SDS011;64119;52.070;20.804;2022-12-11T03:34:40;13.20;;;5.10;;
75535;SDS011;64119;52.070;20.804;2022-12-11T03:37:11;14.80;;;6.00;;
75535;SDS011;64119;52.070;20.804;2022-12-11T03:39:43;13.70;;;5.50;;
75535;SDS011;64119;52.070;20.804;2022-12-11T03:42:15;20.80;;;7.20;;
75535;SDS011;64119;52.070;20.804;2022-12-11T03:44:45;14.30;;;5.70;;
75535;SDS011;64119;52.070;20.804;2022-12-11T03:47:17;17.50;;;7.70;;
75535;SDS011;64119;52.070;20.804;2022-12-11T03:49:47;18.20;;;6.70;;
75535;SDS011;64119;52.070;20.804;2022-12-11T03:52:17;22.50;;;9.30;;
75535;SDS011;64119;52.070;20.804;2022-12-11T03:54:47;20.60;;;7.10;;
75535;SDS011;64119;52.070;20.804;2022-12-11T04:00:24;17.30;;;5.10;;
75535;SDS011;64119;52.070;20.804;2022-12-11T04:02:52;11.80;;;4.40;;
75535;SDS011;64119;52.070;20.804;2022-12-11T04:05:47;15.20;;;5.30;;
75535;SDS011;64119;52.070;20.804;2022-12-11T04:08:17;22.90;;;9.50;;
75535;SDS011;64119;52.070;20.804;2022-12-11T04:10:47;20.40;;;7.70;;
75535;SDS011;64119;52.070;20.804;2022-12-11T04:13:36;14.70;;;5.50;;
75535;SDS011;64119;52.070;20.804;2022-12-11T04:16:05;23.60;;;8.60;;
75535;SDS011;64119;52.070;20.804;2022-12-11T04:18:33;5.70;;;2.60;;
75535;SDS011;64119;52.070;20.804;2022-12-11T04:21:20;13.60;;;5.20;;
75535;SDS011;64119;52.070;20.804;2022-12-11T04:24:06;12.80;;;5.30;;
75535;SDS011;64119;52.070;20.804;2022-12-11T04:26:44;23.80;;;7.70;;
75535;SDS011;64119;52.070;20.804;2022-12-11T04:29:13;15.60;;;6.30;;
75535;SDS011;64119;52.070;20.804;2022-12-11T04:31:41;20.10;;;6.90;;
75535;SDS011;64119;52.070;20.804;2022-12-11T04:34:09;14.80;;;4.00;;
75535;SDS011;64119;52.070;20.804;2022-12-11T04:36:36;11.80;;;3.80;;
75535;SDS011;64119;52.070;20.804;2022-12-11T04:39:04;12.90;;;4.00;;
75535;SDS011;64119;52.070;20.804;2022-12-11T04:41:32;13.40;;;4.10;;
75535;SDS011;64119;52.070;20.804;2022-12-11T04:44:00;16.50;;;5.90;;
75535;SDS011;64119;52.070;20.804;2022-12-11T04:46:28;5.70;;;2.20;;
75535;SDS011;64119;52.070;20.804;2022-12-11T04:48:56;6.10;;;2.20;;
75535;SDS011;64119;52.070;20.804;2022-12-11T04:51:25;9.70;;;3.90;;
75535;SDS011;64119;52.070;20.804;2022-12-11T04:53:53;15.80;;;5.70;;
75535;SDS011;64119;52.070;20.804;2022-12-11T04:59:47;17.40;;;7.00;;
75535;SDS011;64119;52.070;20.804;2022-12-11T05:02:15;13.10;;;5.00;;
75535;SDS011;64119;52.070;20.804;2022-12-11T05:04:43;10.50;;;4.40;;
75535;SDS011;64119;52.070;20.804;2022-12-11T05:07:10;17.20;;;4.90;;
75535;SDS011;64119;52.070;20.804;2022-12-11T05:09:39;11.80;;;4.90;;
75535;SDS011;64119;52.070;20.804;2022-12-11T05:12:06;18.70;;;7.30;;
75535;SDS011;64119;52.070;20.804;2022-12-11T05:14:34;16.40;;;6.10;;
75535;SDS011;64119;52.070;20.804;2022-12-11T05:17:02;16.20;;;5.40;;
75535;SDS011;64119;52.070;20.804;2022-12-11T05:19:29;15.80;;;6.10;;
75535;SDS011;64119;52.070;20.804;2022-12-11T05:21:57;14.20;;;5.80;;
75535;SDS011;64119;52.070;20.804;2022-12-11T05:24:25;12.30;;;4.50;;
75535;SDS011;64119;52.070;20.804;2022-12-11T05:26:53;9.70;;;3.70;;
75535;SDS011;64119;52.070;20.804;2022-12-11T05:29:20;18.90;;;6.20;;
75535;SDS011;64119;52.070;20.804;2022-12-11T05:31:48;10.40;;;3.20;;
75535;SDS011;64119;52.070;20.804;2022-12-11T05:34:16;9.10;;;4.40;;
75535;SDS011;64119;52.070;20.804;2022-12-11T05:36:43;16.00;;;5.30;;
75535;SDS011;64119;52.070;20.804;2022-12-11T05:39:11;13.40;;;5.30;;
75535;SDS011;64119;52.070;20.804;2022-12-11T05:41:39;14.00;;;4.80;;
75535;SDS011;64119;52.070;20.804;2022-12-11T05:44:09;17.70;;;5.30;;
75535;SDS011;64119;52.070;20.804;2022-12-11T05:46:38;15.10;;;6.10;;
75535;SDS011;64119;52.070;20.804;2022-12-11T05:49:06;11.50;;;4.20;;
75535;SDS011;64119;52.070;20.804;2022-12-11T05:51:34;19.00;;;5.80;;
75535;SDS011;64119;52.070;20.804;2022-12-11T05:54:02;18.70;;;7.70;;
75535;SDS011;64119;52.070;20.804;2022-12-11T05:56:31;21.50;;;6.90;;
75535;SDS011;64119;52.070;20.804;2022-12-11T05:59:01;19.90;;;8.90;;
75535;SDS011;64119;52.070;20.804;2022-12-11T06:01:35;11.50;;;4.60;;
75535;SDS011;64119;52.070;20.804;2022-12-11T06:04:05;10.00;;;4.60;;
75535;SDS011;64119;52.070;20.804;2022-12-11T06:06:34;12.20;;;5.90;;
75535;SDS011;64119;52.070;20.804;2022-12-11T06:09:03;14.60;;;4.20;;
75535;SDS011;64119;52.070;20.804;2022-12-11T06:11:32;6.20;;;2.60;;
75535;SDS011;64119;52.070;20.804;2022-12-11T06:14:01;15.70;;;6.40;;
75535;SDS011;64119;52.070;20.804;2022-12-11T06:16:30;23.20;;;8.80;;
75535;SDS011;64119;52.070;20.804;2022-12-11T06:18:58;23.20;;;9.10;;
75535;SDS011;64119;52.070;20.804;2022-12-11T06:21:27;20.40;;;8.30;;
75535;SDS011;64119;52.070;20.804;2022-12-11T06:23:57;16.30;;;7.20;;
75535;SDS011;64119;52.070;20.804;2022-12-11T06:26:27;9.20;;;4.20;;
75535;SDS011;64119;52.070;20.804;2022-12-11T06:28:55;14.90;;;5.80;;
75535;SDS011;64119;52.070;20.804;2022-12-11T06:31:23;13.70;;;5.10;;
75535;SDS011;64119;52.070;20.804;2022-12-11T06:33:51;10.10;;;4.50;;
75535;SDS011;64119;52.070;20.804;2022-12-11T06:36:19;12.90;;;5.40;;
75535;SDS011;64119;52.070;20.804;2022-12-11T06:38:48;11.20;;;4.90;;
75535;SDS011;64119;52.070;20.804;2022-12-11T06:41:17;11.10;;;4.40;;
75535;SDS011;64119;52.070;20.804;2022-12-11T06:43:45;13.60;;;5.50;;
75535;SDS011;64119;52.070;20.804;2022-12-11T06:46:13;12.60;;;4.70;;
75535;SDS011;64119;52.070;20.804;2022-12-11T06:48:43;16.50;;;6.60;;
75535;SDS011;64119;52.070;20.804;2022-12-11T06:51:16;15.00;;;5.70;;
75535;SDS011;64119;52.070;20.804;2022-12-11T06:53:49;11.20;;;4.50;;
75535;SDS011;64119;52.070;20.804;2022-12-11T06:56:19;13.50;;;5.50;;
75535;SDS011;64119;52.070;20.804;2022-12-11T06:58:47;11.20;;;4.80;;
75535;SDS011;64119;52.070;20.804;2022-12-11T07:01:16;9.90;;;4.40;;
75535;SDS011;64119;52.070;20.804;2022-12-11T07:03:51;11.20;;;4.60;;
75535;SDS011;64119;52.070;20.804;2022-12-11T07:06:20;7.00;;;2.80;;
75535;SDS011;64119;52.070;20.804;2022-12-11T07:08:49;8.20;;;3.30;;
75535;SDS011;64119;52.070;20.804;2022-12-11T07:11:17;10.80;;;4.40;;
75535;SDS011;64119;52.070;20.804;2022-12-11T07:13:46;9.30;;;3.00;;
75535;SDS011;64119;52.070;20.804;2022-12-11T07:16:15;12.10;;;4.50;;
75535;SDS011;64119;52.070;20.804;2022-12-11T07:21:16;11.80;;;6.10;;
75535;SDS011;64119;52.070;20.804;2022-12-11T07:23:45;7.70;;;3.50;;
75535;SDS011;64119;52.070;20.804;2022-12-11T07:26:15;10.30;;;4.20;;
75535;SDS011;64119;52.070;20.804;2022-12-11T07:28:45;9.90;;;3.90;;
75535;SDS011;64119;52.070;20.804;2022-12-11T07:31:14;12.40;;;5.30;;
75535;SDS011;64119;52.070;20.804;2022-12-11T07:33:44;14.20;;;6.70;;
75535;SDS011;64119;52.070;20.804;2022-12-11T07:36:13;10.10;;;4.40;;
75535;SDS011;64119;52.070;20.804;2022-12-11T07:38:41;12.70;;;6.00;;
75535;SDS011;64119;52.070;20.804;2022-12-11T07:41:10;7.20;;;2.60;;
75535;SDS011;64119;52.070;20.804;2022-12-11T07:43:39;9.30;;;3.50;;
75535;SDS011;64119;52.070;20.804;2022-12-11T07:46:18;7.80;;;3.50;;
75535;SDS011;64119;52.070;20.804;2022-12-11T07:48:48;10.60;;;4.50;;
75535;SDS011;64119;52.070;20.804;2022-12-11T07:53:47;5.80;;;3.20;;
75535;SDS011;64119;52.070;20.804;2022-12-11T07:59:45;15.20;;;6.00;;
75535;SDS011;64119;52.070;20.804;2022-12-11T08:02:12;9.50;;;3.80;;
75535;SDS011;64119;52.070;20.804;2022-12-11T08:04:40;5.80;;;2.40;;
75535;SDS011;64119;52.070;20.804;2022-12-11T08:07:08;10.70;;;5.30;;
75535;SDS011;64119;52.070;20.804;2022-12-11T08:09:36;12.40;;;4.70;;
75535;SDS011;64119;52.070;20.804;2022-12-11T08:12:03;7.50;;;3.60;;
75535;SDS011;64119;52.070;20.804;2022-12-11T08:14:31;9.70;;;4.40;;
75535;SDS011;64119;52.070;20.804;2022-12-11T08:16:59;11.00;;;4.10;;
75535;SDS011;64119;52.070;20.804;2022-12-11T08:19:28;23.00;;;8.90;;
75535;SDS011;64119;52.070;20.804;2022-12-11T08:21:56;36.60;;;15.70;;
75535;SDS011;64119;52.070;20.804;2022-12-11T08:24:24;27.20;;;9.70;;
75535;SDS011;64119;52.070;20.804;2022-12-11T08:26:51;16.30;;;7.10;;
75535;SDS011;64119;52.070;20.804;2022-12-11T08:29:19;20.40;;;8.30;;
75535;SDS011;64119;52.070;20.804;2022-12-11T08:31:47;14.20;;;5.40;;
75535;SDS011;64119;52.070;20.804;2022-12-11T08:34:14;12.60;;;5.00;;
75535;SDS011;64119;52.070;20.804;2022-12-11T08:36:42;4.00;;;2.10;;
75535;SDS011;64119;52.070;20.804;2022-12-11T08:39:10;6.10;;;2.80;;
75535;SDS011;64119;52.070;20.804;2022-12-11T08:41:38;6.70;;;2.30;;
75535;SDS011;64119;52.070;20.804;2022-12-11T08:44:08;6.40;;;2.40;;
75535;SDS011;64119;52.070;20.804;2022-12-11T08:46:43;12.00;;;3.80;;
75535;SDS011;64119;52.070;20.804;2022-12-11T08:49:10;9.10;;;4.30;;
75535;SDS011;64119;52.070;20.804;2022-12-11T08:51:38;4.00;;;1.80;;
75535;SDS011;64119;52.070;20.804;2022-12-11T08:54:06;7.20;;;3.80;;
75535;SDS011;64119;52.070;20.804;2022-12-11T08:56:34;7.80;;;3.80;;
75535;SDS011;64119;52.070;20.804;2022-12-11T08:59:01;7.80;;;3.30;;
75535;SDS011;64119;52.070;20.804;2022-12-11T09:01:30;9.40;;;3.50;;
75535;SDS011;64119;52.070;20.804;2022-12-11T09:03:59;7.30;;;3.40;;
75535;SDS011;64119;52.070;20.804;2022-12-11T09:06:27;8.70;;;3.00;;
75535;SDS011;64119;52.070;20.804;2022-12-11T09:08:57;13.70;;;5.20;;
75535;SDS011;64119;52.070;20.804;2022-12-11T09:11:28;4.50;;;2.40;;
75535;SDS011;64119;52.070;20.804;2022-12-11T09:13:58;7.30;;;2.70;;
75535;SDS011;64119;52.070;20.804;2022-12-11T09:16:35;7.80;;;3.50;;
75535;SDS011;64119;52.070;20.804;2022-12-11T09:19:06;8.30;;;3.80;;
75535;SDS011;64119;52.070;20.804;2022-12-11T09:21:38;8.60;;;3.10;;
75535;SDS011;64119;52.070;20.804;2022-12-11T09:24:07;5.70;;;2.30;;
75535;SDS011;64119;52.070;20.804;2022-12-11T09:29:05;5.50;;;2.40;;
75535;SDS011;64119;52.070;20.804;2022-12-11T09:31:34;6.50;;;2.40;;
75535;SDS011;64119;52.070;20.804;2022-12-11T09:34:04;6.10;;;3.00;;
75535;SDS011;64119;52.070;20.804;2022-12-11T09:36:34;9.40;;;4.00;;
75535;SDS011;64119;52.070;20.804;2022-12-11T09:39:05;10.10;;;4.30;;
75535;SDS011;64119;52.070;20.804;2022-12-11T09:44:42;10.20;;;4.10;;
75535;SDS011;64119;52.070;20.804;2022-12-11T09:47:16;12.10;;;5.40;;
75535;SDS011;64119;52.070;20.804;2022-12-11T09:49:49;12.50;;;5.10;;
75535;SDS011;64119;52.070;20.804;2022-12-11T09:55:34;9.60;;;4.40;;
75535;SDS011;64119;52.070;20.804;2022-12-11T10:01:20;7.60;;;3.60;;
75535;SDS011;64119;52.070;20.804;2022-12-11T10:07:10;4.20;;;2.10;;
75535;SDS011;64119;52.070;20.804;2022-12-11T10:17:45;6.80;;;2.70;;
75535;SDS011;64119;52.070;20.804;2022-12-11T10:22:45;6.60;;;2.50;;
75535;SDS011;64119;52.070;20.804;2022-12-11T10:25:18;9.10;;;4.00;;
75535;SDS011;64119;52.070;20.804;2022-12-11T10:27:56;10.60;;;5.60;;
75535;SDS011;64119;52.070;20.804;2022-12-11T10:30:24;12.40;;;4.70;;
75535;SDS011;64119;52.070;20.804;2022-12-11T10:35:41;10.00;;;3.70;;
75535;SDS011;64119;52.070;20.804;2022-12-11T10:41:10;3.70;;;2.00;;
75535;SDS011;64119;52.070;20.804;2022-12-11T10:43:41;8.20;;;2.70;;
75535;SDS011;64119;52.070;20.804;2022-12-11T10:46:19;10.50;;;4.50;;
75535;SDS011;64119;52.070;20.804;2022-12-11T10:48:51;12.30;;;5.50;;
75535;SDS011;64119;52.070;20.804;2022-12-11T10:56:35;10.60;;;4.00;;
75535;SDS011;64119;52.070;20.804;2022-12-11T10:59:04;6.70;;;2.90;;
75535;SDS011;64119;52.070;20.804;2022-12-11T11:01:32;7.80;;;3.50;;
75535;SDS011;64119;52.070;20.804;2022-12-11T11:04:04;9.10;;;3.70;;
75535;SDS011;64119;52.070;20.804;2022-12-11T11:06:40;9.70;;;4.00;;
75535;SDS011;64119;52.070;20.804;2022-12-11T11:09:28;11.60;;;5.10;;
75535;SDS011;64119;52.070;20.804;2022-12-11T11:11:58;14.30;;;5.80;;
75535;SDS011;64119;52.070;20.804;2022-12-11T11:14:35;11.60;;;5.20;;
75535;SDS011;64119;52.070;20.804;2022-12-11T11:17:03;17.90;;;6.70;;
75535;SDS011;64119;52.070;20.804;2022-12-11T11:19:35;9.50;;;3.10;;
75535;SDS011;64119;52.070;20.804;2022-12-11T11:22:04;9.50;;;4.80;;
75535;SDS011;64119;52.070;20.804;2022-12-11T11:29:58;8.40;;;3.70;;
75535;SDS011;64119;52.070;20.804;2022-12-11T11:32:32;14.10;;;6.30;;
75535;SDS011;64119;52.070;20.804;2022-12-11T11:35:13;14.50;;;6.00;;
75535;SDS011;64119;52.070;20.804;2022-12-11T11:37:53;14.70;;;5.90;;
75535;SDS011;64119;52.070;20.804;2022-12-11T11:40:32;8.10;;;3.40;;
75535;SDS011;64119;52.070;20.804;2022-12-11T11:43:06;16.40;;;6.50;;
75535;SDS011;64119;52.070;20.804;2022-12-11T11:45:52;9.30;;;4.30;;
75535;SDS011;64119;52.070;20.804;2022-12-11T11:48:37;12.50;;;4.70;;
75535;SDS011;64119;52.070;20.804;2022-12-11T11:53:43;14.80;;;6.40;;
75535;SDS011;64119;52.070;20.804;2022-12-11T12:01:41;7.70;;;3.40;;
75535;SDS011;64119;52.070;20.804;2022-12-11T12:04:10;18.90;;;7.50;;
75535;SDS011;64119;52.070;20.804;2022-12-11T12:06:41;10.10;;;4.70;;
75535;SDS011;64119;52.070;20.804;2022-12-11T12:15:06;8.60;;;4.20;;
75535;SDS011;64119;52.070;20.804;2022-12-11T12:17:45;6.70;;;3.50;;
75535;SDS011;64119;52.070;20.804;2022-12-11T12:20:35;12.00;;;4.30;;
75535;SDS011;64119;52.070;20.804;2022-12-11T12:26:12;12.30;;;4.70;;
75535;SDS011;64119;52.070;20.804;2022-12-11T12:42:18;6.20;;;3.10;;
75535;SDS011;64119;52.070;20.804;2022-12-11T12:44:53;8.70;;;3.30;;
75535;SDS011;64119;52.070;20.804;2022-12-11T12:47:27;11.70;;;4.60;;
75535;SDS011;64119;52.070;20.804;2022-12-11T12:49:59;7.40;;;3.10;;
75535;SDS011;64119;52.070;20.804;2022-12-11T12:55:04;8.50;;;3.80;;
75535;SDS011;64119;52.070;20.804;2022-12-11T12:57:50;5.90;;;2.50;;
75535;SDS011;64119;52.070;20.804;2022-12-11T13:00:38;10.30;;;3.70;;
75535;SDS011;64119;52.070;20.804;2022-12-11T13:03:15;9.70;;;3.00;;
75535;SDS011;64119;52.070;20.804;2022-12-11T13:05:54;8.50;;;3.40;;
75535;SDS011;64119;52.070;20.804;2022-12-11T13:08:44;9.00;;;4.00;;
75535;SDS011;64119;52.070;20.804;2022-12-11T13:11:18;12.20;;;4.60;;
75535;SDS011;64119;52.070;20.804;2022-12-11T13:13:48;8.20;;;3.60;;
75535;SDS011;64119;52.070;20.804;2022-12-11T13:16:38;12.00;;;4.60;;
75535;SDS011;64119;52.070;20.804;2022-12-11T13:21:53;9.10;;;3.60;;
75535;SDS011;64119;52.070;20.804;2022-12-11T13:25:00;5.70;;;2.40;;
75535;SDS011;64119;52.070;20.804;2022-12-11T13:32:41;7.30;;;3.10;;
75535;SDS011;64119;52.070;20.804;2022-12-11T13:35:16;7.30;;;3.50;;
75535;SDS011;64119;52.070;20.804;2022-12-11T13:37:45;7.70;;;3.90;;
75535;SDS011;64119;52.070;20.804;2022-12-11T13:40:26;8.70;;;3.80;;
75535;SDS011;64119;52.070;20.804;2022-12-11T13:43:00;7.90;;;4.10;;
75535;SDS011;64119;52.070;20.804;2022-12-11T13:45:42;8.50;;;4.40;;
75535;SDS011;64119;52.070;20.804;2022-12-11T13:48:25;12.00;;;5.20;;
75535;SDS011;64119;52.070;20.804;2022-12-11T13:50:58;6.60;;;3.40;;
75535;SDS011;64119;52.070;20.804;2022-12-11T13:53:27;8.00;;;3.10;;
75535;SDS011;64119;52.070;20.804;2022-12-11T13:55:56;6.20;;;3.00;;
75535;SDS011;64119;52.070;20.804;2022-12-11T13:58:32;6.80;;;3.10;;
75535;SDS011;64119;52.070;20.804;2022-12-11T14:01:21;3.90;;;2.40;;
75535;SDS011;64119;52.070;20.804;2022-12-11T14:03:59;8.70;;;4.00;;
75535;SDS011;64119;52.070;20.804;2022-12-11T14:06:29;9.60;;;3.90;;
75535;SDS011;64119;52.070;20.804;2022-12-11T14:09:00;5.60;;;2.50;;
75535;SDS011;64119;52.070;20.804;2022-12-11T14:11:31;6.10;;;2.30;;
75535;SDS011;64119;52.070;20.804;2022-12-11T14:14:06;8.60;;;3.90;;
75535;SDS011;64119;52.070;20.804;2022-12-11T14:16:45;6.00;;;3.00;;
75535;SDS011;64119;52.070;20.804;2022-12-11T14:19:18;6.80;;;3.60;;
75535;SDS011;64119;52.070;20.804;2022-12-11T14:22:01;5.80;;;2.60;;
75535;SDS011;64119;52.070;20.804;2022-12-11T14:24:31;6.30;;;2.90;;
75535;SDS011;64119;52.070;20.804;2022-12-11T14:26:59;9.60;;;4.20;;
75535;SDS011;64119;52.070;20.804;2022-12-11T14:29:31;7.80;;;3.40;;
75535;SDS011;64119;52.070;20.804;2022-12-11T14:32:03;13.50;;;6.50;;
75535;SDS011;64119;52.070;20.804;2022-12-11T14:34:34;7.40;;;4.10;;
75535;SDS011;64119;52.070;20.804;2022-12-11T14:37:05;8.80;;;4.60;;
75535;SDS011;64119;52.070;20.804;2022-12-11T14:39:39;9.90;;;4.30;;
75535;SDS011;64119;52.070;20.804;2022-12-11T14:42:13;20.10;;;7.80;;
75535;SDS011;64119;52.070;20.804;2022-12-11T14:44:52;5.60;;;3.10;;
75535;SDS011;64119;52.070;20.804;2022-12-11T14:47:24;12.30;;;4.60;;
75535;SDS011;64119;52.070;20.804;2022-12-11T14:52:32;16.00;;;6.80;;
75535;SDS011;64119;52.070;20.804;2022-12-11T14:57:49;13.60;;;4.80;;
75535;SDS011;64119;52.070;20.804;2022-12-11T15:00:23;14.90;;;7.20;;
75535;SDS011;64119;52.070;20.804;2022-12-11T15:03:00;6.80;;;3.50;;
75535;SDS011;64119;52.070;20.804;2022-12-11T15:05:30;8.50;;;4.20;;
75535;SDS011;64119;52.070;20.804;2022-12-11T15:13:03;13.60;;;6.60;;
75535;SDS011;64119;52.070;20.804;2022-12-11T15:15:36;16.30;;;7.20;;
75535;SDS011;64119;52.070;20.804;2022-12-11T15:18:15;8.50;;;3.80;;
75535;SDS011;64119;52.070;20.804;2022-12-11T15:20:55;11.40;;;5.30;;
75535;SDS011;64119;52.070;20.804;2022-12-11T15:23:26;12.40;;;5.90;;
75535;SDS011;64119;52.070;20.804;2022-12-11T15:25:55;9.90;;;4.30;;
75535;SDS011;64119;52.070;20.804;2022-12-11T15:28:32;4.90;;;2.30;;
75535;SDS011;64119;52.070;20.804;2022-12-11T15:33:53;12.00;;;6.70;;
75535;SDS011;64119;52.070;20.804;2022-12-11T15:36:34;11.90;;;6.80;;
75535;SDS011;64119;52.070;20.804;2022-12-11T15:39:03;8.00;;;3.80;;
75535;SDS011;64119;52.070;20.804;2022-12-11T15:41:34;7.10;;;3.90;;
75535;SDS011;64119;52.070;20.804;2022-12-11T15:44:03;12.00;;;4.20;;
75535;SDS011;64119;52.070;20.804;2022-12-11T15:46:34;6.30;;;3.40;;
75535;SDS011;64119;52.070;20.804;2022-12-11T15:49:04;15.00;;;6.40;;
75535;SDS011;64119;52.070;20.804;2022-12-11T15:51:38;6.30;;;3.20;;
75535;SDS011;64119;52.070;20.804;2022-12-11T15:54:09;7.50;;;3.30;;
75535;SDS011;64119;52.070;20.804;2022-12-11T15:56:37;7.90;;;4.20;;
75535;SDS011;64119;52.070;20.804;2022-12-11T15:59:06;20.60;;;9.90;;
75535;SDS011;64119;52.070;20.804;2022-12-11T16:01:33;14.40;;;5.80;;
75535;SDS011;64119;52.070;20.804;2022-12-11T16:04:01;10.10;;;4.80;;
75535;SDS011;64119;52.070;20.804;2022-12-11T16:06:31;11.00;;;5.00;;
75535;SDS011;64119;52.070;20.804;2022-12-11T16:09:00;10.10;;;5.10;;
75535;SDS011;64119;52.070;20.804;2022-12-11T16:13:58;9.70;;;4.40;;
75535;SDS011;64119;52.070;20.804;2022-12-11T16:16:29;10.70;;;3.70;;
75535;SDS011;64119;52.070;20.804;2022-12-11T16:18:58;8.10;;;4.40;;
75535;SDS011;64119;52.070;20.804;2022-12-11T16:21:26;6.50;;;3.70;;
75535;SDS011;64119;52.070;20.804;2022-12-11T16:23:54;6.10;;;2.70;;
75535;SDS011;64119;52.070;20.804;2022-12-11T16:26:21;11.70;;;4.20;;
75535;SDS011;64119;52.070;20.804;2022-12-11T16:28:49;9.70;;;5.00;;
75535;SDS011;64119;52.070;20.804;2022-12-11T16:31:17;10.60;;;4.90;;
75535;SDS011;64119;52.070;20.804;2022-12-11T16:33:44;6.40;;;3.10;;
75535;SDS011;64119;52.070;20.804;2022-12-11T16:36:16;18.30;;;9.50;;
75535;SDS011;64119;52.070;20.804;2022-12-11T16:38:46;21.00;;;8.10;;
75535;SDS011;64119;52.070;20.804;2022-12-11T16:41:20;12.00;;;5.00;;
75535;SDS011;64119;52.070;20.804;2022-12-11T16:43:49;9.10;;;4.10;;
75535;SDS011;64119;52.070;20.804;2022-12-11T16:46:18;8.10;;;3.20;;
75535;SDS011;64119;52.070;20.804;2022-12-11T16:48:47;14.10;;;5.70;;
75535;SDS011;64119;52.070;20.804;2022-12-11T16:51:15;10.50;;;5.60;;
75535;SDS011;64119;52.070;20.804;2022-12-11T16:53:43;11.40;;;5.40;;
75535;SDS011;64119;52.070;20.804;2022-12-11T16:56:11;13.60;;;5.80;;
75535;SDS011;64119;52.070;20.804;2022-12-11T16:58:39;10.10;;;5.90;;